Time;durP1;ratioP1;P1;durP2;ratioP2;P2;SDS_P1;SDS_P2;PMS_P1;PMS_P2;Temp;Humidity;BMP_temperature;BMP_pressure;BME280_temperature;BME280_humidity;BME280_pressure;Samples;Min_cycle;Max_cycle;Signal;HPM_P1;HPM_P2
2023/03/25 00:00:58;;;;;;;;;;;9.90;99.90;;;;;;5083162;28;19931;-80
2023/03/25 00:03:25;;;;;;;;;;;10.00;99.90;;;;;;5071766;28;20322;-80
2023/03/25 00:05:54;;;;;;;;;;;9.90;99.90;;;;;;5092753;28;19932;-80
2023/03/25 00:08:20;;;;;;;;;;;9.90;99.90;;;;;;5101257;28;19931;-80
2023/03/25 00:10:50;;;;;;;;;;;9.90;99.90;;;;;;5086389;28;19932;-80
2023/03/25 00:13:16;;;;;;;;;;;9.90;99.90;;;;;;5086002;28;19939;-80
2023/03/25 00:15:44;;;;;;;;;;;9.90;99.90;;;;;;5083538;28;20010;-79
2023/03/25 00:18:10;;;;;;;;;;;9.90;99.90;;;;;;5061236;28;19928;-80
2023/03/25 00:20:36;;;;;;;;;;;9.80;99.90;;;;;;5092915;27;19984;-79
2023/03/25 00:23:01;;;;;;;;;;;9.80;99.90;;;;;;5089308;28;19932;-80
2023/03/25 00:25:27;;;;;;;;;;;9.80;99.90;;;;;;5090034;28;19935;-80
2023/03/25 00:27:52;;;;;;;;;;;9.70;99.90;;;;;;5067843;28;19952;-80
2023/03/25 00:30:19;;;;;;;;;;;9.70;99.90;;;;;;5097542;28;19991;-80
2023/03/25 00:32:48;;;;;;;;;;;9.70;99.90;;;;;;5089056;28;19924;-80
2023/03/25 00:35:16;;;;;;;;;;;9.60;99.90;;;;;;5071413;28;19959;-81
2023/03/25 00:37:42;;;;;;;;;;;9.60;99.90;;;;;;5065365;28;19928;-79
2023/03/25 00:40:08;;;;;;;;;;;9.60;99.90;;;;;;5071606;28;19924;-79
2023/03/25 00:42:33;;;;;;;;;;;9.60;99.90;;;;;;5088275;28;19924;-80
2023/03/25 00:44:59;;;;;;;;;;;9.50;99.90;;;;;;5070343;28;19932;-80
2023/03/25 00:47:25;;;;;;;;;;;9.50;99.90;;;;;;5101772;28;19928;-80
2023/03/25 00:49:51;;;;;;;;;;;9.50;99.90;;;;;;5057614;28;19934;-79
2023/03/25 00:52:17;;;;;;;;;;;9.40;99.90;;;;;;5115071;28;20014;-80
2023/03/25 00:54:43;;;;;;;;;;;9.40;99.90;;;;;;5084146;27;19930;-81
2023/03/25 00:57:09;;;;;;;;;;;9.40;99.90;;;;;;5074856;28;19924;-80
2023/03/25 00:59:35;;;;;;;;;;;9.40;99.90;;;;;;5082254;28;19931;-81
2023/03/25 01:02:01;;;;;;;;;;;9.40;99.90;;;;;;5085258;28;19945;-81
2023/03/25 01:04:28;;;;;;;;;;;9.30;99.90;;;;;;5075164;27;20474;-82
2023/03/25 01:06:54;;;;;;;;;;;9.20;99.90;;;;;;5120363;28;19924;-81
2023/03/25 01:09:20;;;;;;;;;;;9.20;99.90;;;;;;5100645;28;19930;-81
2023/03/25 01:11:46;;;;;;;;;;;9.20;99.90;;;;;;5101047;28;19983;-81
2023/03/25 01:14:13;;;;;;;;;;;9.20;99.90;;;;;;5074661;28;19928;-81
2023/03/25 01:16:39;;;;;;;;;;;9.10;99.90;;;;;;5111435;27;20379;-81
2023/03/25 01:19:04;;;;;;;;;;;9.10;99.90;;;;;;5071803;27;19924;-81
2023/03/25 01:21:33;;;;;;;;;;;9.20;99.90;;;;;;5081820;27;20001;-81
2023/03/25 01:23:59;;;;;;;;;;;9.10;99.90;;;;;;5097104;27;20446;-81
2023/03/25 01:26:25;;;;;;;;;;;9.10;99.90;;;;;;5076734;27;19953;-81
2023/03/25 01:28:50;;;;;;;;;;;9.10;99.90;;;;;;5069106;28;20015;-80
2023/03/25 01:31:16;;;;;;;;;;;9.10;99.90;;;;;;5072450;28;19951;-80
2023/03/25 01:33:41;;;;;;;;;;;9.10;99.90;;;;;;5112517;27;19977;-81
2023/03/25 01:36:11;;;;;;;;;;;9.00;99.90;;;;;;5082466;27;19927;-81
2023/03/25 01:38:37;;;;;;;;;;;9.00;99.90;;;;;;5097253;28;19947;-81
2023/03/25 01:41:04;;;;;;;;;;;9.00;99.90;;;;;;5097586;27;19923;-81
2023/03/25 01:43:30;;;;;;;;;;;8.90;99.90;;;;;;5104267;27;19937;-81
2023/03/25 01:45:56;;;;;;;;;;;8.90;99.90;;;;;;5067371;27;19960;-80
2023/03/25 01:48:34;;;;;;;;;;;8.80;99.90;;;;;;5070410;28;19928;-80
2023/03/25 01:51:11;;;;;;;;;;;8.80;99.90;;;;;;5092508;28;20445;-81
2023/03/25 01:53:37;;;;;;;;;;;8.80;99.90;;;;;;5102264;27;19938;-81
2023/03/25 01:56:05;;;;;;;;;;;8.70;99.90;;;;;;5062595;28;19924;-79
2023/03/25 01:58:32;;;;;;;;;;;8.70;99.90;;;;;;5104093;27;19972;-79
2023/03/25 02:01:00;;;;;;;;;;;8.70;99.90;;;;;;5065859;28;19924;-79
2023/03/25 02:03:26;;;;;;;;;;;8.60;99.90;;;;;;5063017;27;20006;-77
2023/03/25 02:05:52;;;;;;;;;;;8.60;99.90;;;;;;5099007;28;19969;-79
2023/03/25 02:08:17;;;;;;;;;;;8.60;99.90;;;;;;5074765;28;19924;-79
2023/03/25 02:10:46;;;;;;;;;;;8.60;99.90;;;;;;5082229;28;19954;-80
2023/03/25 02:13:13;;;;;;;;;;;8.50;99.90;;;;;;5090976;27;20126;-79
2023/03/25 02:16:05;;;;;;;;;;;8.50;99.90;;;;;;5103277;27;20287;-80
2023/03/25 02:18:37;;;;;;;;;;;8.50;99.90;;;;;;5035224;28;19930;-80
2023/03/25 02:21:22;;;;;;;;;;;8.50;99.90;;;;;;5069732;28;19925;-80
2023/03/25 02:24:03;;;;;;;;;;;8.50;99.90;;;;;;5090186;28;19969;-81
2023/03/25 02:26:48;;;;;;;;;;;8.40;99.90;;;;;;5078612;28;19924;-81
2023/03/25 02:29:37;;;;;;;;;;;8.40;99.90;;;;;;5092284;28;19924;-81
2023/03/25 02:32:03;;;;;;;;;;;8.50;99.90;;;;;;5055863;28;19932;-82
2023/03/25 02:34:32;;;;;;;;;;;8.40;99.90;;;;;;5071830;28;20354;-82
2023/03/25 02:37:16;;;;;;;;;;;8.40;99.90;;;;;;5067599;28;19931;-81
2023/03/25 02:39:46;;;;;;;;;;;8.40;99.90;;;;;;5099502;28;19931;-80
2023/03/25 02:42:19;;;;;;;;;;;8.40;99.90;;;;;;5115531;28;20502;-81
2023/03/25 02:44:54;;;;;;;;;;;8.40;99.90;;;;;;5071241;28;19924;-81
2023/03/25 02:47:22;;;;;;;;;;;8.50;99.90;;;;;;5111916;28;19924;-81
2023/03/25 02:49:50;;;;;;;;;;;8.50;99.90;;;;;;5089519;28;19927;-81
2023/03/25 02:52:33;;;;;;;;;;;8.50;99.90;;;;;;5094840;28;20003;-81
2023/03/25 02:55:03;;;;;;;;;;;8.50;99.90;;;;;;5134796;28;20087;-81
2023/03/25 02:57:30;;;;;;;;;;;8.50;99.90;;;;;;5083520;28;20331;-82
2023/03/25 02:59:56;;;;;;;;;;;8.50;99.90;;;;;;5102686;28;19935;-82
2023/03/25 03:02:24;;;;;;;;;;;8.50;99.90;;;;;;5093127;28;19945;-82
2023/03/25 03:04:51;;;;;;;;;;;8.50;99.90;;;;;;5072527;28;19924;-82
2023/03/25 03:07:25;;;;;;;;;;;8.50;99.90;;;;;;5083519;28;19950;-82
2023/03/25 03:10:18;;;;;;;;;;;8.50;99.90;;;;;;5103413;28;19924;-82
2023/03/25 03:12:59;;;;;;;;;;;8.50;99.90;;;;;;5082394;28;20375;-82
2023/03/25 03:15:25;;;;;;;;;;;8.50;99.90;;;;;;5101691;28;19939;-82
2023/03/25 03:18:08;;;;;;;;;;;8.50;99.90;;;;;;5079340;27;19924;-83
2023/03/25 03:20:56;;;;;;;;;;;8.50;99.90;;;;;;5123188;27;20695;-83
2023/03/25 03:23:25;;;;;;;;;;;8.50;99.90;;;;;;5085128;27;19924;-83
2023/03/25 03:26:10;;;;;;;;;;;8.50;99.90;;;;;;5095809;27;19963;-83
2023/03/25 03:28:36;;;;;;;;;;;8.50;99.90;;;;;;5128723;27;19931;-83
2023/03/25 03:31:10;;;;;;;;;;;8.50;99.90;;;;;;5087990;28;19924;-82
2023/03/25 03:33:42;;;;;;;;;;;8.50;99.90;;;;;;5119254;27;19991;-82
2023/03/25 03:36:16;;;;;;;;;;;8.50;99.90;;;;;;5088818;28;19924;-83
2023/03/25 03:38:47;;;;;;;;;;;8.50;99.90;;;;;;5084966;27;19949;-82
2023/03/25 03:41:16;;;;;;;;;;;8.50;99.90;;;;;;5092877;27;19930;-82
2023/03/25 03:43:48;;;;;;;;;;;8.50;99.90;;;;;;5104774;27;19950;-83
2023/03/25 03:46:20;;;;;;;;;;;8.50;99.90;;;;;;5100635;27;19930;-83
2023/03/25 03:48:47;;;;;;;;;;;8.50;99.90;;;;;;5091211;27;19932;-83
2023/03/25 03:51:23;;;;;;;;;;;8.50;99.90;;;;;;5107743;27;19945;-83
2023/03/25 03:53:53;;;;;;;;;;;8.50;99.90;;;;;;5088295;28;20389;-83
2023/03/25 03:56:21;;;;;;;;;;;8.50;99.90;;;;;;5125364;27;19924;-83
2023/03/25 03:58:49;;;;;;;;;;;8.50;99.90;;;;;;5096289;27;19932;-82
2023/03/25 04:01:26;;;;;;;;;;;8.50;99.90;;;;;;5069592;28;19928;-81
2023/03/25 04:03:56;;;;;;;;;;;8.50;99.90;;;;;;5091766;28;19965;-81
2023/03/25 04:06:40;;;;;;;;;;;8.50;99.90;;;;;;5092078;28;20214;-82
2023/03/25 04:09:17;;;;;;;;;;;8.50;99.90;;;;;;5091331;27;19950;-82
2023/03/25 04:11:45;;;;;;;;;;;8.50;99.90;;;;;;5122136;27;20406;-82
2023/03/25 04:14:12;;;;;;;;;;;8.50;99.90;;;;;;5109769;28;19974;-81
2023/03/25 04:16:37;;;;;;;;;;;8.50;99.90;;;;;;5081181;27;19970;-81
2023/03/25 04:19:04;;;;;;;;;;;8.50;99.90;;;;;;5120606;27;19939;-81
2023/03/25 04:21:30;;;;;;;;;;;8.50;99.90;;;;;;5096200;28;19927;-81
2023/03/25 04:24:00;;;;;;;;;;;8.50;99.90;;;;;;5074552;27;19983;-81
2023/03/25 04:26:32;;;;;;;;;;;8.50;99.90;;;;;;5075031;27;19928;-81
2023/03/25 04:29:00;;;;;;;;;;;8.50;99.90;;;;;;5099852;27;19927;-81
2023/03/25 04:31:29;;;;;;;;;;;8.50;99.90;;;;;;5095653;28;19928;-81
2023/03/25 04:33:56;;;;;;;;;;;8.40;99.90;;;;;;5088314;28;19928;-81
2023/03/25 04:36:22;;;;;;;;;;;8.50;99.90;;;;;;5076360;27;20060;-82
2023/03/25 04:38:48;;;;;;;;;;;8.50;99.90;;;;;;5091340;28;19973;-82
2023/03/25 04:41:14;;;;;;;;;;;8.40;99.90;;;;;;5091750;27;19924;-82
2023/03/25 04:43:40;;;;;;;;;;;8.40;99.90;;;;;;5117705;27;19924;-83
2023/03/25 04:46:09;;;;;;;;;;;8.40;99.90;;;;;;5098273;28;19935;-83
2023/03/25 04:48:40;;;;;;;;;;;8.40;99.90;;;;;;5086393;28;19934;-83
2023/03/25 04:51:09;;;;;;;;;;;8.30;99.90;;;;;;5064945;27;19932;-83
2023/03/25 04:53:35;;;;;;;;;;;8.30;99.90;;;;;;5102995;27;20400;-80
2023/03/25 04:56:01;;;;;;;;;;;8.30;99.90;;;;;;5081010;27;19924;-81
2023/03/25 04:58:27;;;;;;;;;;;8.30;99.90;;;;;;5093015;27;19992;-82
2023/03/25 05:00:53;;;;;;;;;;;8.30;99.90;;;;;;5079176;27;19930;-82
2023/03/25 05:03:23;;;;;;;;;;;8.30;99.90;;;;;;5075541;28;19927;-82
2023/03/25 05:05:52;;;;;;;;;;;8.30;99.90;;;;;;5082723;28;19928;-83
2023/03/25 05:08:20;;;;;;;;;;;8.30;99.90;;;;;;5097885;28;19969;-84
2023/03/25 05:10:46;;;;;;;;;;;8.30;99.90;;;;;;5098003;27;19955;-83
2023/03/25 05:13:11;;;;;;;;;;;8.30;99.90;;;;;;5084223;28;19938;-83
2023/03/25 05:15:40;;;;;;;;;;;8.30;99.90;;;;;;5117743;27;19924;-83
2023/03/25 05:18:11;;;;;;;;;;;8.30;99.90;;;;;;5097761;27;20359;-82
2023/03/25 05:20:38;;;;;;;;;;;8.30;99.90;;;;;;5072374;27;19946;-83
2023/03/25 05:23:17;;;;;;;;;;;8.30;99.90;;;;;;5113854;27;19923;-80
2023/03/25 05:25:46;;;;;;;;;;;8.30;99.90;;;;;;5077976;27;19946;-78
2023/03/25 05:28:14;;;;;;;;;;;8.30;99.90;;;;;;5093809;28;20011;-79
2023/03/25 05:30:41;;;;;;;;;;;8.20;99.90;;;;;;5082221;28;19973;-79
2023/03/25 05:33:10;;;;;;;;;;;8.20;99.90;;;;;;5081116;27;19931;-79
2023/03/25 05:35:37;;;;;;;;;;;8.20;99.90;;;;;;5091100;28;19932;-80
2023/03/25 05:38:08;;;;;;;;;;;8.20;99.90;;;;;;5070631;28;19969;-80
2023/03/25 05:40:34;;;;;;;;;;;8.20;99.90;;;;;;5078757;27;20051;-80
2023/03/25 05:43:02;;;;;;;;;;;8.20;99.90;;;;;;5075695;28;19924;-80
2023/03/25 05:45:27;;;;;;;;;;;8.10;99.90;;;;;;5071636;27;20393;-80
2023/03/25 05:47:53;;;;;;;;;;;8.10;99.90;;;;;;5091968;27;19928;-80
2023/03/25 05:50:20;;;;;;;;;;;8.10;99.90;;;;;;5102551;28;19923;-80
2023/03/25 05:52:48;;;;;;;;;;;8.10;99.90;;;;;;5084322;28;19931;-80
2023/03/25 05:55:19;;;;;;;;;;;8.10;99.90;;;;;;5084653;28;19927;-81
2023/03/25 05:57:45;;;;;;;;;;;8.10;99.90;;;;;;5084123;28;19923;-81
2023/03/25 06:00:11;;;;;;;;;;;8.10;99.90;;;;;;5084120;27;20006;-79
2023/03/25 06:02:41;;;;;;;;;;;8.10;99.90;;;;;;5111350;28;20383;-81
2023/03/25 06:05:12;;;;;;;;;;;8.20;99.90;;;;;;5066280;28;19980;-80
2023/03/25 06:07:41;;;;;;;;;;;8.20;99.90;;;;;;5084755;28;19976;-80
2023/03/25 06:10:08;;;;;;;;;;;8.20;99.90;;;;;;5101142;28;19924;-80
2023/03/25 06:12:37;;;;;;;;;;;8.20;99.90;;;;;;5091080;28;19962;-81
2023/03/25 06:15:09;;;;;;;;;;;8.20;99.90;;;;;;5076661;28;19924;-81
2023/03/25 06:17:38;;;;;;;;;;;8.20;99.90;;;;;;5062815;28;19963;-80
2023/03/25 06:20:08;;;;;;;;;;;8.30;99.90;;;;;;5063900;28;19928;-80
2023/03/25 06:22:36;;;;;;;;;;;8.30;99.90;;;;;;5072372;28;20020;-80
2023/03/25 06:25:02;;;;;;;;;;;8.30;99.90;;;;;;5089657;28;19928;-80
2023/03/25 06:27:27;;;;;;;;;;;8.30;99.90;;;;;;5061626;28;20043;-81
2023/03/25 06:29:53;;;;;;;;;;;8.20;99.90;;;;;;5090290;28;19995;-81
2023/03/25 06:32:19;;;;;;;;;;;8.20;99.90;;;;;;5080562;28;19923;-81
2023/03/25 06:34:44;;;;;;;;;;;8.20;99.90;;;;;;5097730;28;19935;-81
2023/03/25 06:37:10;;;;;;;;;;;8.20;99.90;;;;;;5084528;28;19934;-81
2023/03/25 06:39:38;;;;;;;;;;;8.20;99.90;;;;;;5067030;28;19934;-81
2023/03/25 06:42:04;;;;;;;;;;;8.20;99.90;;;;;;5092814;27;19931;-81
2023/03/25 06:44:30;;;;;;;;;;;8.20;99.90;;;;;;5079436;27;19934;-81
2023/03/25 06:46:56;;;;;;;;;;;8.20;99.90;;;;;;5104743;28;19987;-81
2023/03/25 06:49:21;;;;;;;;;;;8.30;99.90;;;;;;5083368;28;20374;-80
2023/03/25 06:51:47;;;;;;;;;;;8.40;99.90;;;;;;5055767;28;19924;-81
2023/03/25 06:54:13;;;;;;;;;;;8.50;99.90;;;;;;5086608;28;19924;-80
2023/03/25 06:56:39;;;;;;;;;;;8.70;99.90;;;;;;5073606;28;19924;-80
2023/03/25 06:59:05;;;;;;;;;;;8.80;99.90;;;;;;5103225;28;19953;-80
2023/03/25 07:01:30;;;;;;;;;;;8.90;99.90;;;;;;5070411;28;20025;-80
2023/03/25 07:03:56;;;;;;;;;;;9.10;99.90;;;;;;5086809;28;19967;-80
2023/03/25 07:06:22;;;;;;;;;;;9.20;99.90;;;;;;5066917;28;19991;-80
2023/03/25 07:08:48;;;;;;;;;;;9.40;99.90;;;;;;5119625;28;21212;-80
2023/03/25 07:11:15;;;;;;;;;;;9.60;99.90;;;;;;5104277;28;20362;-81
2023/03/25 07:13:40;;;;;;;;;;;9.70;99.90;;;;;;5088501;27;19924;-80
2023/03/25 07:16:06;;;;;;;;;;;9.80;99.90;;;;;;5076648;28;19989;-80
2023/03/25 07:18:32;;;;;;;;;;;9.80;99.90;;;;;;5070852;28;19946;-80
2023/03/25 07:20:58;;;;;;;;;;;9.70;99.90;;;;;;5071481;28;19928;-81
2023/03/25 07:23:24;;;;;;;;;;;9.70;99.90;;;;;;5091706;27;19932;-80
2023/03/25 07:25:49;;;;;;;;;;;9.60;99.90;;;;;;5106051;28;19932;-78
2023/03/25 07:28:15;;;;;;;;;;;9.50;99.90;;;;;;5088662;27;20421;-79
2023/03/25 07:30:40;;;;;;;;;;;9.30;99.90;;;;;;5068458;28;19928;-79
2023/03/25 07:33:06;;;;;;;;;;;9.20;99.90;;;;;;5065252;28;20393;-80
2023/03/25 07:35:31;;;;;;;;;;;9.10;99.90;;;;;;5097419;27;19942;-80
2023/03/25 07:37:57;;;;;;;;;;;9.00;99.90;;;;;;5072723;28;19924;-80
2023/03/25 07:40:23;;;;;;;;;;;8.90;99.90;;;;;;5074928;27;19984;-80
2023/03/25 07:42:48;;;;;;;;;;;8.90;99.90;;;;;;5075737;27;19934;-79
2023/03/25 07:45:14;;;;;;;;;;;8.90;99.90;;;;;;5069347;27;19982;-79
2023/03/25 07:47:40;;;;;;;;;;;8.90;99.90;;;;;;5073653;28;19935;-80
2023/03/25 07:50:06;;;;;;;;;;;8.90;99.90;;;;;;5092249;28;20138;-79
2023/03/25 07:52:31;;;;;;;;;;;8.80;99.90;;;;;;5104498;28;19942;-80
2023/03/25 07:54:59;;;;;;;;;;;8.90;99.90;;;;;;5079291;28;20022;-80
2023/03/25 07:57:25;;;;;;;;;;;8.90;99.90;;;;;;5078361;28;19977;-80
2023/03/25 07:59:50;;;;;;;;;;;9.10;99.90;;;;;;5110971;28;19928;-81
2023/03/25 08:02:16;;;;;;;;;;;9.20;99.90;;;;;;5060207;28;19974;-81
2023/03/25 08:04:42;;;;;;;;;;;9.20;99.90;;;;;;5072092;28;19928;-81
2023/03/25 08:07:08;;;;;;;;;;;9.10;99.90;;;;;;5079129;28;19943;-80
2023/03/25 08:09:33;;;;;;;;;;;9.10;99.90;;;;;;5078890;28;19984;-82
2023/03/25 08:11:59;;;;;;;;;;;9.20;99.90;;;;;;5077889;28;19934;-79
2023/03/25 08:14:24;;;;;;;;;;;9.60;99.90;;;;;;5075501;28;20710;-80
2023/03/25 08:16:50;;;;;;;;;;;9.80;99.90;;;;;;5077106;28;20053;-81
2023/03/25 08:19:16;;;;;;;;;;;9.90;99.90;;;;;;5072098;28;19928;-80
2023/03/25 08:21:41;;;;;;;;;;;9.80;99.90;;;;;;5074735;28;20026;-80
2023/03/25 08:24:07;;;;;;;;;;;9.80;99.90;;;;;;5062282;28;19935;-79
2023/03/25 08:26:33;;;;;;;;;;;9.80;99.90;;;;;;5084129;28;19928;-80
2023/03/25 08:29:01;;;;;;;;;;;9.70;99.90;;;;;;5067978;28;19924;-79
2023/03/25 08:31:29;;;;;;;;;;;9.60;99.90;;;;;;5074911;28;19954;-80
2023/03/25 08:33:56;;;;;;;;;;;9.60;99.90;;;;;;5117336;28;19923;-79
2023/03/25 08:36:22;;;;;;;;;;;9.60;99.90;;;;;;5101543;28;20328;-79
2023/03/25 08:38:48;;;;;;;;;;;9.60;99.90;;;;;;5068804;28;19931;-79
2023/03/25 08:41:13;;;;;;;;;;;9.60;99.90;;;;;;5083830;28;19958;-79
2023/03/25 08:43:39;;;;;;;;;;;9.60;99.90;;;;;;5068187;28;19950;-79
2023/03/25 08:46:05;;;;;;;;;;;9.60;99.90;;;;;;5101764;28;19923;-79
2023/03/25 08:48:30;;;;;;;;;;;9.50;99.90;;;;;;5101637;28;19924;-80
2023/03/25 08:50:56;;;;;;;;;;;9.50;99.90;;;;;;5035510;28;1820241;-80
2023/03/25 08:53:22;;;;;;;;;;;9.50;99.90;;;;;;5070997;28;19924;-80
2023/03/25 08:55:52;;;;;;;;;;;9.50;99.90;;;;;;5099459;28;20454;-81
2023/03/25 08:58:18;;;;;;;;;;;9.60;99.90;;;;;;5081880;28;19931;-81
2023/03/25 09:00:44;;;;;;;;;;;9.70;99.90;;;;;;5084034;28;19924;-80
2023/03/25 09:03:10;;;;;;;;;;;9.80;99.90;;;;;;5090200;28;20282;-80
2023/03/25 09:05:39;;;;;;;;;;;9.90;99.90;;;;;;5067009;28;19987;-78
2023/03/25 09:08:04;;;;;;;;;;;9.80;99.90;;;;;;5102674;28;19924;-80
2023/03/25 09:10:30;;;;;;;;;;;9.70;99.90;;;;;;5090443;28;19928;-80
2023/03/25 09:12:56;;;;;;;;;;;9.70;99.90;;;;;;5109332;28;19928;-80
2023/03/25 09:15:21;;;;;;;;;;;9.80;99.90;;;;;;5092669;28;19935;-81
2023/03/25 09:17:47;;;;;;;;;;;10.10;99.90;;;;;;5070268;28;20027;-80
2023/03/25 09:20:13;;;;;;;;;;;10.20;99.90;;;;;;5055194;28;19924;-80
2023/03/25 09:22:39;;;;;;;;;;;10.20;99.90;;;;;;5073583;28;20293;-81
2023/03/25 09:25:05;;;;;;;;;;;10.10;99.90;;;;;;5086563;28;20003;-81
2023/03/25 09:27:31;;;;;;;;;;;10.00;99.90;;;;;;5106121;28;19928;-81
2023/03/25 09:29:57;;;;;;;;;;;10.00;99.90;;;;;;5081487;28;19924;-81
2023/03/25 09:32:23;;;;;;;;;;;9.90;99.90;;;;;;5097160;28;20444;-80
2023/03/25 09:34:51;;;;;;;;;;;9.90;99.90;;;;;;5098298;28;19924;-79
2023/03/25 09:37:17;;;;;;;;;;;9.70;99.90;;;;;;5115442;28;19947;-79
2023/03/25 09:39:42;;;;;;;;;;;9.70;99.90;;;;;;5080771;28;19974;-79
2023/03/25 09:42:41;;;;;;;;;;;9.70;99.90;;;;;;5073288;28;19933;-81
2023/03/25 09:45:21;;;;;;;;;;;9.70;99.90;;;;;;5039832;28;19927;-79
2023/03/25 09:47:52;;;;;;;;;;;9.70;99.90;;;;;;5081476;28;20307;-79
2023/03/25 09:50:19;;;;;;;;;;;9.70;99.90;;;;;;5074587;28;19979;-80
2023/03/25 09:53:00;;;;;;;;;;;9.90;99.90;;;;;;5121875;27;19924;-80
2023/03/25 09:55:27;;;;;;;;;;;10.00;99.90;;;;;;5071923;28;19924;-81
2023/03/25 09:58:01;;;;;;;;;;;10.10;99.90;;;;;;5090096;28;20390;-80
2023/03/25 10:00:26;;;;;;;;;;;10.20;99.90;;;;;;5072840;28;20293;-79
2023/03/25 10:03:10;;;;;;;;;;;10.20;99.90;;;;;;5058853;28;19924;-80
2023/03/25 10:05:42;;;;;;;;;;;10.20;99.90;;;;;;5091620;28;20147;-80
2023/03/25 10:08:14;;;;;;;;;;;10.20;99.90;;;;;;5072483;28;19928;-80
2023/03/25 10:10:40;;;;;;;;;;;10.30;99.90;;;;;;5074135;28;19996;-80
2023/03/25 10:13:35;;;;;;;;;;;10.30;99.90;;;;;;5090226;28;19963;-81
2023/03/25 10:16:19;;;;;;;;;;;10.20;99.90;;;;;;5010249;28;19925;-80
2023/03/25 10:18:45;;;;;;;;;;;10.20;99.90;;;;;;5078743;28;19924;-80
2023/03/25 10:21:18;;;;;;;;;;;10.30;99.90;;;;;;5085616;28;19928;-80
2023/03/25 10:23:51;;;;;;;;;;;10.30;99.90;;;;;;5073896;28;20023;-80
2023/03/25 10:26:23;;;;;;;;;;;10.30;99.90;;;;;;5070163;28;19931;-80
2023/03/25 10:28:55;;;;;;;;;;;10.30;99.90;;;;;;5063577;28;19978;-79
2023/03/25 10:31:24;;;;;;;;;;;10.20;99.90;;;;;;5103095;28;19930;-79
2023/03/25 10:33:55;;;;;;;;;;;10.30;99.90;;;;;;5122192;28;19932;-79
2023/03/25 10:36:24;;;;;;;;;;;10.60;99.90;;;;;;5117071;28;19991;-79
2023/03/25 10:38:53;;;;;;;;;;;10.90;99.90;;;;;;5070928;28;20010;-79
2023/03/25 10:41:24;;;;;;;;;;;11.10;99.90;;;;;;5072844;28;19924;-79
2023/03/25 10:43:49;;;;;;;;;;;11.10;99.90;;;;;;5072010;28;20371;-79
2023/03/25 10:46:23;;;;;;;;;;;11.00;99.90;;;;;;5074283;28;19935;-79
2023/03/25 10:48:49;;;;;;;;;;;10.90;99.90;;;;;;5074366;28;20885;-79
2023/03/25 10:51:16;;;;;;;;;;;10.80;99.90;;;;;;5104904;28;19928;-79
2023/03/25 10:53:45;;;;;;;;;;;10.60;99.90;;;;;;5089195;28;19928;-79
2023/03/25 10:56:37;;;;;;;;;;;10.50;99.90;;;;;;5080356;28;19928;-79
2023/03/25 10:59:19;;;;;;;;;;;10.40;99.90;;;;;;5067655;28;19929;-79
2023/03/25 11:01:45;;;;;;;;;;;10.30;99.90;;;;;;5103477;28;19938;-79
2023/03/25 11:04:12;;;;;;;;;;;10.30;99.90;;;;;;5085310;28;19924;-79
2023/03/25 11:06:39;;;;;;;;;;;10.50;99.90;;;;;;5071571;28;20496;-80
2023/03/25 11:09:12;;;;;;;;;;;10.80;99.90;;;;;;5097261;28;19924;-80
2023/03/25 11:11:38;;;;;;;;;;;11.00;99.90;;;;;;5078526;28;19924;-80
2023/03/25 11:14:04;;;;;;;;;;;11.10;99.90;;;;;;5091103;28;20015;-80
2023/03/25 11:16:34;;;;;;;;;;;11.10;99.90;;;;;;5066336;28;19925;-80
2023/03/25 11:19:01;;;;;;;;;;;11.20;99.90;;;;;;5075575;28;19932;-79
2023/03/25 11:21:31;;;;;;;;;;;11.30;99.90;;;;;;5088183;28;19928;-80
2023/03/25 11:23:57;;;;;;;;;;;11.30;99.90;;;;;;5096966;28;19928;-80
2023/03/25 11:26:24;;;;;;;;;;;11.30;99.90;;;;;;5071160;28;19928;-79
2023/03/25 11:28:52;;;;;;;;;;;11.50;99.90;;;;;;5076605;28;19950;-79
2023/03/25 11:31:19;;;;;;;;;;;11.60;99.90;;;;;;5084027;28;19923;-79
2023/03/25 11:33:58;;;;;;;;;;;11.70;99.90;;;;;;5082538;28;19924;-80
2023/03/25 11:36:26;;;;;;;;;;;11.80;99.90;;;;;;5067560;28;19931;-80
2023/03/25 11:38:56;;;;;;;;;;;12.10;99.90;;;;;;5091762;28;19925;-79
2023/03/25 11:41:22;;;;;;;;;;;12.10;99.90;;;;;;5142321;27;19923;-80
2023/03/25 11:43:48;;;;;;;;;;;12.10;99.90;;;;;;5072321;28;19932;-80
2023/03/25 11:46:16;;;;;;;;;;;12.10;99.90;;;;;;5071614;28;19924;-79
2023/03/25 11:48:43;;;;;;;;;;;12.00;99.90;;;;;;5092402;28;19928;-80
2023/03/25 11:51:13;;;;;;;;;;;11.90;99.90;;;;;;5063193;28;19925;-79
2023/03/25 11:53:43;;;;;;;;;;;11.90;99.90;;;;;;5092021;28;19993;-79
2023/03/25 11:56:10;;;;;;;;;;;12.00;99.90;;;;;;5096950;28;20011;-79
2023/03/25 11:58:37;;;;;;;;;;;12.20;99.90;;;;;;5102163;28;19947;-79
2023/03/25 12:01:16;;;;;;;;;;;12.40;99.90;;;;;;5122214;27;19932;-79
2023/03/25 12:03:43;;;;;;;;;;;12.70;99.90;;;;;;5094971;28;19932;-79
2023/03/25 12:06:11;;;;;;;;;;;12.90;99.90;;;;;;5091710;28;19924;-79
2023/03/25 12:08:56;;;;;;;;;;;13.00;99.90;;;;;;5097296;28;19942;-79
2023/03/25 12:11:24;;;;;;;;;;;12.80;99.90;;;;;;5085212;28;19929;-79
2023/03/25 12:13:50;;;;;;;;;;;12.80;99.90;;;;;;5093593;28;20399;-79
2023/03/25 12:16:15;;;;;;;;;;;12.70;99.90;;;;;;5084547;28;19960;-78
2023/03/25 12:18:53;;;;;;;;;;;12.60;99.90;;;;;;5076082;28;19962;-80
2023/03/25 12:21:28;;;;;;;;;;;12.50;99.90;;;;;;5068397;28;19939;-79
2023/03/25 12:24:04;;;;;;;;;;;12.30;99.90;;;;;;5075051;28;19931;-79
2023/03/25 12:26:36;;;;;;;;;;;12.20;99.90;;;;;;5072963;28;19924;-79
2023/03/25 12:29:18;;;;;;;;;;;12.10;99.90;;;;;;5073380;28;19924;-79
2023/03/25 12:32:02;;;;;;;;;;;11.90;99.90;;;;;;5096139;28;19924;-80
2023/03/25 12:34:28;;;;;;;;;;;11.80;99.90;;;;;;5090857;28;19924;-80
2023/03/25 12:36:58;;;;;;;;;;;11.80;99.90;;;;;;5070462;28;20381;-80
2023/03/25 12:39:43;;;;;;;;;;;11.80;99.90;;;;;;5118307;27;19936;-80
2023/03/25 12:42:17;;;;;;;;;;;11.80;99.90;;;;;;5106209;28;19924;-79
2023/03/25 12:45:08;;;;;;;;;;;11.80;99.90;;;;;;5094002;28;20620;-80
2023/03/25 12:47:35;;;;;;;;;;;11.90;99.90;;;;;;5119003;27;19940;-80
2023/03/25 12:50:20;;;;;;;;;;;12.10;99.90;;;;;;5064031;28;19933;-80
2023/03/25 12:53:04;;;;;;;;;;;12.40;99.90;;;;;;5060725;28;19924;-80
2023/03/25 12:55:40;;;;;;;;;;;12.60;99.90;;;;;;5069468;28;19963;-81
2023/03/25 12:58:19;;;;;;;;;;;12.90;99.90;;;;;;5105568;28;19925;-80
2023/03/25 13:00:45;;;;;;;;;;;13.10;99.90;;;;;;5068450;28;19928;-81
2023/03/25 13:03:20;;;;;;;;;;;13.00;99.90;;;;;;5093239;28;19928;-80
2023/03/25 13:05:49;;;;;;;;;;;12.80;99.90;;;;;;5081824;28;20382;-80
2023/03/25 13:08:17;;;;;;;;;;;12.70;99.90;;;;;;5100168;28;19931;-81
2023/03/25 13:10:45;;;;;;;;;;;12.60;99.90;;;;;;5080967;28;20421;-79
2023/03/25 13:13:19;;;;;;;;;;;12.60;99.90;;;;;;5114287;28;19934;-81
2023/03/25 13:15:46;;;;;;;;;;;12.60;99.90;;;;;;5133156;27;19969;-80
2023/03/25 13:18:15;;;;;;;;;;;12.60;99.90;;;;;;5100078;28;19946;-80
2023/03/25 13:21:00;;;;;;;;;;;12.50;99.90;;;;;;5069045;28;19931;-80
2023/03/25 13:23:26;;;;;;;;;;;12.70;99.90;;;;;;5072700;28;19927;-80
2023/03/25 13:25:59;;;;;;;;;;;12.90;99.90;;;;;;5088714;28;20406;-80
2023/03/25 13:28:27;;;;;;;;;;;13.10;99.90;;;;;;5081215;28;19932;-81
2023/03/25 13:30:54;;;;;;;;;;;13.20;99.90;;;;;;5094644;28;19932;-80
2023/03/25 13:33:23;;;;;;;;;;;13.10;99.90;;;;;;5114237;28;19924;-80
2023/03/25 13:35:53;;;;;;;;;;;12.90;99.90;;;;;;5130895;27;20370;-80
2023/03/25 13:38:23;;;;;;;;;;;12.80;99.90;;;;;;5115478;28;19956;-81
2023/03/25 13:41:06;;;;;;;;;;;12.60;99.90;;;;;;5080876;28;19932;-81
2023/03/25 13:43:35;;;;;;;;;;;12.50;99.90;;;;;;5076639;28;19924;-81
2023/03/25 13:46:12;;;;;;;;;;;12.50;99.90;;;;;;5079909;28;19926;-81
2023/03/25 13:48:41;;;;;;;;;;;12.60;99.90;;;;;;5081020;28;19924;-80
2023/03/25 13:51:07;;;;;;;;;;;12.70;99.90;;;;;;5097686;28;20070;-81
2023/03/25 13:53:45;;;;;;;;;;;12.70;99.90;;;;;;5080464;28;19931;-81
2023/03/25 13:56:17;;;;;;;;;;;12.80;99.90;;;;;;5083827;28;19927;-82
2023/03/25 13:59:01;;;;;;;;;;;12.80;99.90;;;;;;5114817;28;19930;-81
2023/03/25 14:01:56;;;;;;;;;;;12.80;99.90;;;;;;5078421;28;19928;-81
2023/03/25 14:04:41;;;;;;;;;;;12.70;99.90;;;;;;5080338;28;19959;-80
2023/03/25 14:07:23;;;;;;;;;;;12.60;99.90;;;;;;5081353;28;19924;-80
2023/03/25 14:10:07;;;;;;;;;;;12.50;99.90;;;;;;5080797;28;20396;-80
2023/03/25 14:12:33;;;;;;;;;;;12.50;99.90;;;;;;5097586;28;20015;-80
2023/03/25 14:15:03;;;;;;;;;;;12.30;99.90;;;;;;5080445;28;19924;-80
2023/03/25 14:17:29;;;;;;;;;;;12.20;99.90;;;;;;5082178;28;19967;-81
2023/03/25 14:19:57;;;;;;;;;;;12.10;99.90;;;;;;5108608;28;19947;-80
2023/03/25 14:22:27;;;;;;;;;;;12.00;99.90;;;;;;5107468;28;19924;-81
2023/03/25 14:24:53;;;;;;;;;;;12.00;99.90;;;;;;5115216;28;19988;-80
2023/03/25 14:27:25;;;;;;;;;;;11.90;99.90;;;;;;5082257;28;19970;-81
2023/03/25 14:29:54;;;;;;;;;;;11.70;99.90;;;;;;5083957;28;19963;-81
2023/03/25 14:32:20;;;;;;;;;;;11.50;99.90;;;;;;5080220;28;19978;-80
2023/03/25 14:34:48;;;;;;;;;;;11.30;99.90;;;;;;5097859;28;19928;-81
2023/03/25 14:37:20;;;;;;;;;;;11.10;99.90;;;;;;5080993;28;19980;-79
2023/03/25 14:39:45;;;;;;;;;;;10.90;99.90;;;;;;5085188;28;20413;-78